Time;durP1;ratioP1;P1;durP2;ratioP2;P2;SDS_P1;SDS_P2;PMS_P1;PMS_P2;Temp;Humidity;BMP_temperature;BMP_pressure;BME280_temperature;BME280_humidity;BME280_pressure;Samples;Min_cycle;Max_cycle;Signal;HPM_P1;HPM_P2
2021/08/21 00:01:13;;;;;;;7.90;7.10;;;;;;;16.06;97.76;101102.66;5016803;28;20057;-74
2021/08/21 00:03:40;;;;;;;7.57;6.50;;;;;;;15.97;97.74;101108.63;5043382;28;20080;-75
2021/08/21 00:06:08;;;;;;;9.75;6.90;;;;;;;15.94;97.78;101103.56;5050754;28;20324;-75
2021/08/21 00:08:35;;;;;;;9.38;6.93;;;;;;;15.85;98.37;101109.53;5049589;28;20045;-74
2021/08/21 00:11:02;;;;;;;7.13;6.30;;;;;;;15.86;98.23;101116.56;5051250;28;20558;-75
2021/08/21 00:13:30;;;;;;;7.93;6.20;;;;;;;16.03;97.34;101105.56;5028089;28;20041;-75
2021/08/21 00:15:57;;;;;;;10.60;7.32;;;;;;;15.92;97.59;101100.16;5057636;28;20053;-75
2021/08/21 00:18:24;;;;;;;8.77;7.35;;;;;;;15.87;97.79;101103.16;5028481;28;20293;-74
2021/08/21 00:20:51;;;;;;;10.43;7.03;;;;;;;15.84;98.21;101103.38;5027858;28;20510;-75
2021/08/21 00:23:19;;;;;;;10.88;8.02;;;;;;;15.81;98.07;101103.63;5025520;28;20057;-74
2021/08/21 00:25:46;;;;;;;10.38;6.97;;;;;;;16.05;97.03;101098.31;5063441;28;20049;-75
2021/08/21 00:28:13;;;;;;;8.02;6.20;;;;;;;16.06;96.75;101101.81;5016698;28;20056;-74
2021/08/21 00:30:40;;;;;;;11.20;6.82;;;;;;;16.07;97.00;101106.16;5036402;28;20071;-75
2021/08/21 00:33:07;;;;;;;8.20;7.07;;;;;;;16.06;96.61;101107.13;5050175;28;20218;-74
2021/08/21 00:35:35;;;;;;;8.30;5.93;;;;;;;16.07;96.27;101114.13;5046380;28;20534;-74
2021/08/21 00:38:02;;;;;;;8.18;6.82;;;;;;;16.08;96.45;101116.69;5050747;28;20087;-74
2021/08/21 00:40:29;;;;;;;7.15;6.43;;;;;;;16.07;96.36;101114.13;5045886;28;20057;-74
2021/08/21 00:42:57;;;;;;;9.35;7.40;;;;;;;16.12;96.13;101112.84;5027024;28;20048;-75
2021/08/21 00:45:24;;;;;;;7.85;6.13;;;;;;;16.07;96.36;101112.31;5050135;28;20124;-72
2021/08/21 00:47:52;;;;;;;9.18;6.72;;;;;;;16.22;95.87;101114.81;5017714;28;20139;-74
2021/08/21 00:50:20;;;;;;;6.65;5.95;;;;;;;16.09;96.53;101109.56;5055712;28;20040;-74
2021/08/21 00:52:48;;;;;;;10.68;6.38;;;;;;;16.03;96.91;101113.53;5045954;28;20495;-73
2021/08/21 00:55:15;;;;;;;12.73;7.03;;;;;;;16.06;96.80;101109.78;5054214;28;20106;-74
2021/08/21 00:57:42;;;;;;;7.88;6.82;;;;;;;15.99;96.93;101105.91;5044565;28;20563;-75
2021/08/21 01:00:10;;;;;;;8.23;6.72;;;;;;;15.91;97.52;101106.44;5021822;28;20049;-74
2021/08/21 01:02:38;;;;;;;11.55;6.70;;;;;;;15.94;97.75;101099.13;5026117;28;20576;-75
2021/08/21 01:05:08;;;;;;;9.10;6.63;;;;;;;15.81;98.87;101086.84;5015242;28;20508;-74
2021/08/21 01:07:36;;;;;;;10.60;6.55;;;;;;;15.80;99.73;101101.06;5030745;28;20052;-74
2021/08/21 01:10:08;;;;;;;8.80;7.13;;;;;;;15.81;99.46;101098.31;5059706;28;20136;-75
2021/08/21 01:12:35;;;;;;;11.13;7.93;;;;;;;15.77;99.81;101104.81;5010720;28;20044;-74
2021/08/21 01:15:04;;;;;;;9.60;7.07;;;;;;;16.04;98.38;101109.91;5015191;28;20477;-75
2021/08/21 01:17:31;;;;;;;9.57;7.57;;;;;;;16.07;97.44;101101.69;5012022;28;20077;-74
2021/08/21 01:19:58;;;;;;;9.88;7.35;;;;;;;16.09;97.48;101106.91;5019993;28;20045;-74
2021/08/21 01:22:27;;;;;;;8.25;7.10;;;;;;;16.08;98.07;101102.56;5055188;28;20547;-75
2021/08/21 01:24:55;;;;;;;16.17;8.32;;;;;;;16.14;97.49;101110.06;5015272;28;20336;-75
2021/08/21 01:27:27;;;;;;;9.02;7.32;;;;;;;16.07;98.03;101104.34;5027296;28;20171;-75
2021/08/21 01:29:54;;;;;;;7.93;6.93;;;;;;;16.18;97.92;101107.06;5015293;28;20041;-74
2021/08/21 01:32:22;;;;;;;9.32;7.97;;;;;;;16.10;97.47;101105.94;5049384;28;20080;-74
2021/08/21 01:34:50;;;;;;;9.38;6.45;;;;;;;16.14;97.48;101104.75;5032308;28;20068;-75
2021/08/21 01:37:18;;;;;;;9.00;6.75;;;;;;;16.07;98.48;101108.81;5013697;28;20064;-76
2021/08/21 01:39:46;;;;;;;9.90;8.32;;;;;;;15.94;99.06;101111.53;5039841;28;20052;-75
2021/08/21 01:42:14;;;;;;;10.10;7.00;;;;;;;16.03;99.07;101108.22;4999705;28;20055;-76
2021/08/21 01:44:41;;;;;;;9.23;7.05;;;;;;;16.09;98.21;101113.06;5034118;28;20041;-74
2021/08/21 01:47:18;;;;;;;9.30;7.55;;;;;;;16.16;97.65;101103.66;5029554;28;20051;-75
2021/08/21 01:50:00;;;;;;;9.15;8.25;;;;;;;16.11;98.17;101104.97;5015237;28;20049;-75
2021/08/21 01:52:28;;;;;;;9.73;7.57;;;;;;;16.03;98.85;101105.56;5030556;28;20150;-74
2021/08/21 01:54:56;;;;;;;11.27;7.40;;;;;;;16.08;98.69;101105.22;5054026;28;20044;-75
2021/08/21 01:57:23;;;;;;;11.02;8.13;;;;;;;15.95;99.19;101105.25;5028350;28;20163;-75
2021/08/21 01:59:51;;;;;;;9.60;8.63;;;;;;;15.82;100.00;101115.09;5059137;28;20161;-75
2021/08/21 02:02:21;;;;;;;10.13;8.30;;;;;;;15.79;100.00;101112.66;5049687;28;20052;-77
2021/08/21 02:04:52;;;;;;;8.57;7.63;;;;;;;15.69;100.00;101112.47;5039596;28;20051;-75
2021/08/21 02:07:20;;;;;;;11.68;9.15;;;;;;;15.68;100.00;101119.59;5040312;28;20042;-73
2021/08/21 02:09:47;;;;;;;11.32;9.27;;;;;;;15.77;100.00;101112.78;5040000;28;20492;-75
2021/08/21 02:12:16;;;;;;;12.48;9.15;;;;;;;15.78;100.00;101114.47;5045503;28;20088;-74
2021/08/21 02:14:44;;;;;;;10.45;8.80;;;;;;;15.81;100.00;101113.41;5012594;28;20068;-76
2021/08/21 02:17:11;;;;;;;13.20;7.85;;;;;;;15.88;100.00;101120.78;5028294;28;20155;-75
2021/08/21 02:19:38;;;;;;;10.48;8.40;;;;;;;15.79;100.00;101115.31;5043202;28;20044;-73
2021/08/21 02:22:06;;;;;;;11.45;9.10;;;;;;;15.67;100.00;101112.59;5049812;28;20051;-75
2021/08/21 02:24:34;;;;;;;12.30;9.45;;;;;;;15.58;100.00;101109.69;5028241;28;20045;-75
2021/08/21 02:27:03;;;;;;;10.43;8.60;;;;;;;15.68;100.00;101105.47;5017792;28;20056;-74
2021/08/21 02:29:31;;;;;;;9.82;7.95;;;;;;;15.68;100.00;101108.97;5028952;28;20047;-75
2021/08/21 02:31:59;;;;;;;10.25;8.23;;;;;;;15.73;100.00;101099.84;5034119;28;20052;-74
2021/08/21 02:34:28;;;;;;;11.80;9.60;;;;;;;15.69;100.00;101104.50;5051815;28;20552;-74
2021/08/21 02:36:55;;;;;;;9.35;8.30;;;;;;;15.59;100.00;101103.47;5020151;28;20160;-75
2021/08/21 02:39:22;;;;;;;10.60;7.95;;;;;;;15.40;100.00;101094.19;5053056;28;20476;-75
2021/08/21 02:41:49;;;;;;;15.38;9.13;;;;;;;15.33;100.00;101097.38;5029455;28;20725;-74
2021/08/21 02:44:17;;;;;;;11.73;9.13;;;;;;;15.18;100.00;101096.66;5028814;28;20064;-74
2021/08/21 02:46:44;;;;;;;13.57;8.77;;;;;;;15.09;100.00;101107.91;5011765;28;20072;-75
2021/08/21 02:49:11;;;;;;;10.05;8.52;;;;;;;15.25;100.00;101103.19;5046961;28;20140;-74
2021/08/21 02:51:39;;;;;;;10.23;9.23;;;;;;;15.31;100.00;101110.75;5032483;28;20069;-74
2021/08/21 02:54:06;;;;;;;10.75;9.65;;;;;;;15.38;100.00;101106.69;5029501;28;20046;-74
2021/08/21 02:56:33;;;;;;;12.82;9.43;;;;;;;15.15;100.00;101108.31;5034276;28;20158;-76
2021/08/21 02:59:00;;;;;;;12.48;10.05;;;;;;;15.03;100.00;101106.50;5034728;28;20556;-75
2021/08/21 03:01:28;;;;;;;11.57;9.80;;;;;;;14.84;100.00;101106.94;5004867;28;20037;-75
2021/08/21 03:03:55;;;;;;;13.05;9.70;;;;;;;14.78;100.00;101109.19;5052877;28;20056;-74
2021/08/21 03:06:23;;;;;;;12.60;9.80;;;;;;;14.72;100.00;101110.44;5056018;28;20094;-75
2021/08/21 03:08:51;;;;;;;11.30;10.00;;;;;;;14.80;100.00;101112.56;5031601;28;20087;-74
2021/08/21 03:11:18;;;;;;;11.43;9.52;;;;;;;14.80;100.00;101117.88;5050107;28;20045;-73
2021/08/21 03:13:45;;;;;;;13.43;10.93;;;;;;;14.58;100.00;101118.47;5030863;28;20064;-74
2021/08/21 03:16:12;;;;;;;11.18;9.70;;;;;;;14.48;100.00;101120.03;5037352;28;20144;-74
2021/08/21 03:18:39;;;;;;;11.10;9.90;;;;;;;14.46;100.00;101120.16;5031101;28;20068;-75
2021/08/21 03:21:07;;;;;;;12.88;10.52;;;;;;;14.50;100.00;101123.44;5057096;28;20045;-74
2021/08/21 03:23:34;;;;;;;13.23;10.98;;;;;;;14.38;100.00;101119.81;5046170;28;20148;-76
2021/08/21 03:26:01;;;;;;;13.23;10.63;;;;;;;14.51;100.00;101123.38;5013890;28;20049;-75
2021/08/21 03:28:28;;;;;;;12.45;11.10;;;;;;;14.49;100.00;101122.59;5046992;28;20068;-75
2021/08/21 03:30:56;;;;;;;15.23;10.88;;;;;;;14.51;100.00;101115.41;5055684;28;20076;-74
2021/08/21 03:33:23;;;;;;;13.60;11.88;;;;;;;14.45;100.00;101115.78;5031025;28;20195;-73
2021/08/21 03:35:51;;;;;;;14.63;12.70;;;;;;;14.34;100.00;101116.50;5039333;28;20128;-73
2021/08/21 03:38:18;;;;;;;15.82;13.27;;;;;;;14.26;100.00;101110.88;5032281;28;20194;-73
2021/08/21 03:40:45;;;;;;;16.20;13.07;;;;;;;14.38;100.00;101112.72;5028642;28;20049;-75
2021/08/21 03:43:13;;;;;;;15.07;12.77;;;;;;;14.48;100.00;101114.72;5031020;28;20075;-75
2021/08/21 03:45:41;;;;;;;14.20;12.75;;;;;;;14.38;100.00;101122.47;5053506;28;20084;-75
2021/08/21 03:48:10;;;;;;;15.18;13.52;;;;;;;14.14;100.00;101125.78;5047011;28;20079;-73
2021/08/21 03:50:37;;;;;;;14.95;13.23;;;;;;;13.96;100.00;101119.06;5052685;28;20495;-74
2021/08/21 03:53:04;;;;;;;19.65;14.65;;;;;;;13.78;100.00;101120.22;5047228;28;20057;-76
2021/08/21 03:55:31;;;;;;;18.58;13.77;;;;;;;13.72;100.00;101123.28;5040696;28;20154;-74
2021/08/21 03:58:00;;;;;;;14.98;13.18;;;;;;;13.96;100.00;101127.00;5051875;28;20428;-74
2021/08/21 04:00:27;;;;;;;16.05;12.60;;;;;;;14.13;100.00;101123.22;5050437;28;20128;-75
2021/08/21 04:02:54;;;;;;;17.08;13.38;;;;;;;14.27;100.00;101130.25;5049466;28;20390;-74
2021/08/21 04:05:24;;;;;;;18.50;13.82;;;;;;;14.11;100.00;101128.63;5035316;28;20049;-75
2021/08/21 04:07:51;;;;;;;16.98;15.18;;;;;;;13.96;100.00;101134.94;5038812;28;20115;-74
2021/08/21 04:10:19;;;;;;;16.52;14.80;;;;;;;13.85;100.00;101125.03;5032501;28;20103;-74
2021/08/21 04:12:46;;;;;;;16.67;14.10;;;;;;;14.13;100.00;101139.09;5032745;28;20044;-74
2021/08/21 04:15:13;;;;;;;17.45;15.32;;;;;;;14.28;100.00;101143.41;5037412;28;20152;-74
2021/08/21 04:17:40;;;;;;;15.90;13.68;;;;;;;14.36;100.00;101141.13;5056397;28;20052;-74
2021/08/21 04:20:08;;;;;;;15.65;13.98;;;;;;;14.34;100.00;101144.78;5053954;28;20441;-73
2021/08/21 04:22:36;;;;;;;14.38;12.93;;;;;;;14.37;100.00;101139.31;5037429;28;20124;-73
2021/08/21 04:25:03;;;;;;;16.95;13.35;;;;;;;14.39;100.00;101148.00;5036360;28;20084;-74
2021/08/21 04:27:30;;;;;;;19.58;13.05;;;;;;;14.81;100.00;101149.56;5051751;28;20111;-75
2021/08/21 04:29:58;;;;;;;15.77;12.13;;;;;;;15.03;100.00;101150.75;5046263;28;20052;-74
2021/08/21 04:32:25;;;;;;;13.85;11.48;;;;;;;15.18;100.00;101153.19;5054632;28;20055;-74
2021/08/21 04:34:52;;;;;;;15.10;13.38;;;;;;;15.12;100.00;101158.91;5004762;28;20127;-73
2021/08/21 04:37:19;;;;;;;14.30;12.43;;;;;;;15.13;100.00;101160.63;5034754;28;20061;-75
2021/08/21 04:39:46;;;;;;;14.07;12.48;;;;;;;15.08;100.00;101165.38;5037333;28;20063;-73
2021/08/21 04:42:14;;;;;;;17.65;13.60;;;;;;;15.07;100.00;101168.16;5028231;28;20106;-75
2021/08/21 04:44:41;;;;;;;15.63;13.95;;;;;;;15.17;100.00;101167.41;5031960;28;20709;-73
2021/08/21 04:47:10;;;;;;;11.70;10.48;;;;;;;15.44;100.00;101171.72;5046970;28;20132;-76
2021/08/21 04:49:37;;;;;;;11.90;10.70;;;;;;;15.76;100.00;101168.59;5020458;28;20041;-74
2021/08/21 04:52:04;;;;;;;12.63;10.95;;;;;;;15.74;100.00;101168.72;5047426;28;20051;-74
2021/08/21 04:54:31;;;;;;;12.48;11.15;;;;;;;15.90;100.00;101165.84;5054658;28;20048;-74
2021/08/21 04:56:58;;;;;;;17.75;12.05;;;;;;;16.05;100.00;101180.63;5036360;28;20045;-76
2021/08/21 04:59:26;;;;;;;13.93;11.95;;;;;;;15.98;100.00;101183.84;5013927;28;20041;-73
2021/08/21 05:01:53;;;;;;;14.40;11.95;;;;;;;16.03;100.00;101179.91;5002472;28;21289;-74
2021/08/21 05:04:21;;;;;;;13.27;11.02;;;;;;;16.26;100.00;101180.88;5016906;28;20069;-75
2021/08/21 05:06:48;;;;;;;14.60;11.07;;;;;;;16.49;100.00;101173.84;5029448;28;20044;-75
2021/08/21 05:09:15;;;;;;;15.57;11.02;;;;;;;16.60;100.00;101176.53;5020037;28;20507;-75
2021/08/21 05:11:42;;;;;;;11.73;10.13;;;;;;;16.82;98.17;101180.25;5030700;28;20520;-74
2021/08/21 05:14:10;;;;;;;11.85;10.63;;;;;;;17.13;97.46;101187.56;5036299;28;20102;-74
2021/08/21 05:16:37;;;;;;;13.40;10.43;;;;;;;17.25;94.88;101182.28;5034032;28;20135;-75
2021/08/21 05:19:09;;;;;;;11.10;10.00;;;;;;;17.31;94.32;101182.63;5029217;28;20063;-76
2021/08/21 05:21:47;;;;;;;14.43;11.68;;;;;;;17.34;94.42;101187.72;5045216;28;20055;-76
2021/08/21 05:24:14;;;;;;;14.70;11.98;;;;;;;17.23;93.07;101182.38;5050009;28;20110;-74
2021/08/21 05:26:43;;;;;;;14.32;11.65;;;;;;;16.64;96.27;101187.78;5013183;28;20119;-73
2021/08/21 05:29:14;;;;;;;14.57;12.55;;;;;;;16.54;98.30;101187.63;5034489;28;20044;-73
2021/08/21 05:31:42;;;;;;;14.10;11.05;;;;;;;16.57;97.36;101187.41;5056350;28;20568;-74
2021/08/21 05:34:11;;;;;;;14.00;10.90;;;;;;;16.78;96.61;101192.09;5037608;28;20064;-74
2021/08/21 05:36:38;;;;;;;12.68;11.10;;;;;;;17.03;95.83;101197.25;5029369;28;20156;-73
2021/08/21 05:39:07;;;;;;;14.80;11.80;;;;;;;16.95;95.16;101196.97;5055255;28;20413;-75
2021/08/21 05:41:34;;;;;;;12.98;10.40;;;;;;;17.19;93.86;101210.19;5048837;28;20136;-76
2021/08/21 05:44:02;;;;;;;12.10;10.80;;;;;;;17.49;90.56;101203.44;5047453;28;20136;-74
2021/08/21 05:46:29;;;;;;;12.00;10.63;;;;;;;17.81;88.55;101198.25;5043983;28;20055;-75
2021/08/21 05:48:57;;;;;;;13.75;10.80;;;;;;;17.53;89.93;101204.91;4999506;28;20133;-74
2021/08/21 05:51:24;;;;;;;15.77;10.98;;;;;;;17.54;89.92;101210.09;5048793;28;20123;-75
2021/08/21 05:53:51;;;;;;;11.43;10.23;;;;;;;17.48;90.17;101205.28;5015369;28;20453;-73
2021/08/21 05:56:18;;;;;;;11.98;10.60;;;;;;;17.88;87.53;101204.81;5055981;28;20152;-75
2021/08/21 05:58:46;;;;;;;12.60;10.48;;;;;;;17.99;87.52;101206.59;5049721;28;20049;-74
2021/08/21 06:01:13;;;;;;;10.80;9.55;;;;;;;18.48;85.42;101204.25;5060285;28;20119;-73
2021/08/21 06:03:40;;;;;;;13.93;9.48;;;;;;;19.40;81.03;101198.28;5042767;28;20052;-74
2021/08/21 06:06:12;;;;;;;13.18;9.55;;;;;;;20.15;75.72;101197.84;5041190;28;20084;-74
2021/08/21 06:08:40;;;;;;;10.43;9.35;;;;;;;20.33;74.55;101203.34;5015972;28;20127;-74
2021/08/21 06:11:07;;;;;;;10.48;9.02;;;;;;;19.91;75.24;101213.41;5017649;28;20045;-74
2021/08/21 06:13:34;;;;;;;14.80;9.73;;;;;;;19.91;74.98;101216.09;5032562;28;20064;-75
2021/08/21 06:16:02;;;;;;;9.85;8.85;;;;;;;20.22;73.48;101216.88;5055071;28;20119;-74
2021/08/21 06:18:31;;;;;;;11.52;10.38;;;;;;;21.31;69.43;101217.53;5050837;28;20044;-73
2021/08/21 06:20:58;;;;;;;10.70;8.10;;;;;;;23.36;61.90;101216.81;5038118;28;20468;-74
2021/08/21 06:23:25;;;;;;;9.85;7.68;;;;;;;23.67;59.99;101225.22;5046390;28;20352;-75
2021/08/21 06:25:52;;;;;;;12.40;8.85;;;;;;;25.25;53.74;101218.91;5041464;28;20055;-73
2021/08/21 06:28:24;;;;;;;9.25;7.07;;;;;;;25.90;51.38;101223.28;5026647;28;20044;-74
2021/08/21 06:30:52;;;;;;;12.45;8.38;;;;;;;26.26;50.36;101221.72;5059781;28;20040;-75
2021/08/21 06:33:20;;;;;;;8.50;7.60;;;;;;;27.08;47.76;101218.41;5047318;28;20095;-74
2021/08/21 06:35:47;;;;;;;9.30;8.07;;;;;;;27.79;45.23;101212.59;5048545;28;20068;-76
2021/08/21 06:38:14;;;;;;;9.00;7.88;;;;;;;27.15;47.08;101216.66;5047153;28;20526;-75
2021/08/21 06:40:42;;;;;;;11.07;7.22;;;;;;;26.34;48.57;101225.38;5041522;28;20379;-76
2021/08/21 06:43:09;;;;;;;13.40;7.18;;;;;;;26.21;48.70;101229.53;5011469;28;20408;-74
2021/08/21 06:45:36;;;;;;;9.35;7.10;;;;;;;26.85;48.37;101226.56;5036184;28;20064;-75
2021/08/21 06:48:05;;;;;;;8.52;7.22;;;;;;;27.37;46.43;101228.41;5021928;28;20090;-75
2021/08/21 06:50:33;;;;;;;46.95;10.73;;;;;;;27.53;45.07;101219.28;5022592;28;20510;-75
2021/08/21 06:53:02;;;;;;;16.35;8.75;;;;;;;27.62;45.54;101220.88;5033133;28;20045;-75
2021/08/21 06:55:30;;;;;;;9.63;7.93;;;;;;;30.29;39.65;101222.06;5021252;28;20357;-76
2021/08/21 06:58:04;;;;;;;11.15;8.35;;;;;;;30.01;39.34;101229.25;5026289;28;20175;-74
2021/08/21 07:00:32;;;;;;;11.25;9.20;;;;;;;26.45;47.29;101230.41;5048805;28;20444;-75
2021/08/21 07:03:00;;;;;;;10.45;7.95;;;;;;;28.63;42.57;101229.97;5016651;28;20045;-75
2021/08/21 07:05:28;;;;;;;11.77;9.23;;;;;;;28.56;42.19;101233.69;5057509;28;20053;-74
2021/08/21 07:07:55;;;;;;;11.00;8.27;;;;;;;28.98;41.33;101236.38;5030987;28;20605;-76
2021/08/21 07:10:22;;;;;;;12.02;8.70;;;;;;;29.89;39.61;101232.75;5030252;28;20148;-76
2021/08/21 07:12:50;;;;;;;8.80;7.60;;;;;;;29.45;40.09;101226.69;5020393;28;20029;-74
2021/08/21 07:15:17;;;;;;;9.02;7.82;;;;;;;28.93;41.23;101238.78;5051570;28;20117;-75
2021/08/21 07:17:44;;;;;;;12.38;7.95;;;;;;;28.10;43.10;101231.25;5033854;28;20139;-74
2021/08/21 07:20:12;;;;;;;9.25;8.15;;;;;;;27.38;44.71;101229.25;5015996;28;20084;-76
2021/08/21 07:22:39;;;;;;;11.50;8.05;;;;;;;26.46;47.09;101232.91;5047391;28;20469;-74
2021/08/21 07:25:07;;;;;;;11.63;7.60;;;;;;;25.98;48.63;101226.78;5055000;28;20170;-75
2021/08/21 07:27:34;;;;;;;9.68;7.38;;;;;;;28.67;41.73;101228.56;5030606;28;20051;-74
2021/08/21 07:30:05;;;;;;;11.40;7.53;;;;;;;26.74;45.67;101229.66;5002026;28;20076;-75
2021/08/21 07:32:32;;;;;;;8.70;6.47;;;;;;;26.67;46.05;101221.47;5042612;28;20052;-74
2021/08/21 07:35:00;;;;;;;11.75;7.28;;;;;;;26.45;46.57;101230.41;5064152;28;20081;-78
2021/08/21 07:37:28;;;;;;;8.13;6.85;;;;;;;26.04;47.88;101237.88;5047476;28;20506;-76
2021/08/21 07:39:55;;;;;;;8.88;7.47;;;;;;;25.08;50.10;101228.03;5023163;28;20076;-75
2021/08/21 07:42:22;;;;;;;9.50;7.50;;;;;;;26.15;47.29;101241.00;5017930;28;20048;-75
2021/08/21 07:44:50;;;;;;;9.90;7.97;;;;;;;24.78;50.60;101246.56;5056576;28;20050;-75
2021/08/21 07:47:17;;;;;;;11.05;8.48;;;;;;;23.83;53.91;101240.59;5056692;28;20616;-74
2021/08/21 07:49:45;;;;;;;10.15;7.20;;;;;;;25.59;49.58;101234.84;5062252;28;20130;-75
2021/08/21 07:52:12;;;;;;;10.10;7.50;;;;;;;27.71;44.56;101240.56;5050083;28;20048;-74
2021/08/21 07:54:39;;;;;;;9.82;7.03;;;;;;;26.97;45.13;101240.44;5043505;28;20088;-74
2021/08/21 07:57:06;;;;;;;8.25;7.35;;;;;;;26.25;47.11;101248.88;5053140;28;20132;-75
2021/08/21 07:59:33;;;;;;;10.05;7.78;;;;;;;26.09;47.51;101247.13;5052902;28;20682;-74
2021/08/21 08:02:09;;;;;;;10.07;6.63;;;;;;;26.17;47.87;101243.56;5033790;28;20433;-76
2021/08/21 08:04:37;;;;;;;29.52;9.23;;;;;;;25.44;48.30;101245.50;5048001;28;20119;-74
2021/08/21 08:07:04;;;;;;;12.55;7.57;;;;;;;24.02;52.03;101244.03;5049990;28;20104;-75
2021/08/21 08:09:31;;;;;;;10.13;7.85;;;;;;;23.23;54.38;101251.31;5052791;28;20434;-75
2021/08/21 08:11:58;;;;;;;10.95;7.97;;;;;;;23.29;54.72;101253.38;5048791;28;20053;-74
2021/08/21 08:14:25;;;;;;;9.43;7.72;;;;;;;22.71;56.90;101251.22;5053826;28;20045;-74
2021/08/21 08:16:53;;;;;;;9.30;7.45;;;;;;;25.59;49.14;101251.00;5031786;28;20445;-74
2021/08/21 08:19:20;;;;;;;11.25;7.82;;;;;;;28.75;42.32;101247.41;5018995;28;20045;-74
2021/08/21 08:21:47;;;;;;;9.43;7.03;;;;;;;29.12;40.38;101247.31;5035382;28;20289;-76
2021/08/21 08:24:16;;;;;;;10.35;7.20;;;;;;;29.32;39.96;101250.19;5016772;28;20040;-75
2021/08/21 08:26:43;;;;;;;12.00;7.97;;;;;;;27.16;43.62;101242.69;5055912;28;20052;-74
2021/08/21 08:29:10;;;;;;;9.27;7.28;;;;;;;28.74;41.05;101245.72;5004368;28;20041;-77
2021/08/21 08:31:37;;;;;;;10.93;7.78;;;;;;;27.19;43.89;101250.41;5044785;28;20081;-75
2021/08/21 08:34:05;;;;;;;10.48;6.78;;;;;;;26.01;46.89;101250.69;5031953;28;20456;-76
2021/08/21 08:36:32;;;;;;;9.52;7.30;;;;;;;25.97;47.75;101248.53;5034776;28;20043;-75
2021/08/21 08:39:00;;;;;;;11.40;7.47;;;;;;;27.73;43.38;101252.03;5036257;28;20040;-74
2021/08/21 08:41:28;;;;;;;9.10;6.63;;;;;;;26.82;45.01;101248.50;5047557;28;20049;-80
2021/08/21 08:43:56;;;;;;;10.40;6.75;;;;;;;25.74;46.58;101256.53;4995166;28;20439;-74
2021/08/21 08:46:23;;;;;;;10.00;7.20;;;;;;;25.36;48.07;101255.47;5014437;28;20119;-75
2021/08/21 08:48:51;;;;;;;8.52;6.32;;;;;;;25.19;49.24;101255.47;5010898;28;20144;-75
2021/08/21 08:51:20;;;;;;;9.07;5.75;;;;;;;25.36;49.97;101260.84;5049204;28;20052;-75
2021/08/21 08:53:47;;;;;;;13.95;7.63;;;;;;;25.40;48.30;101262.19;5012114;28;20061;-76
2021/08/21 08:56:14;;;;;;;11.25;7.25;;;;;;;24.72;50.75;101257.97;5040616;28;20083;-75
2021/08/21 08:58:41;;;;;;;10.68;6.57;;;;;;;25.09;50.25;101260.22;5049856;28;20174;-74
2021/08/21 09:01:08;;;;;;;8.07;6.35;;;;;;;25.56;48.49;101254.03;5047285;28;20484;-75
2021/08/21 09:03:38;;;;;;;9.35;5.90;;;;;;;25.99;47.32;101263.53;5012174;28;20107;-75
2021/08/21 09:06:05;;;;;;;8.43;6.10;;;;;;;26.51;46.03;101268.31;5012010;28;20510;-75
2021/08/21 09:08:35;;;;;;;9.68;5.40;;;;;;;26.77;44.12;101267.13;5011465;28;20103;-75
2021/08/21 09:11:21;;;;;;;40.83;8.02;;;;;;;26.37;45.84;101270.91;5030492;28;20518;-76
2021/08/21 09:13:50;;;;;;;8.23;4.65;;;;;;;25.88;46.49;101271.16;5011695;28;20041;-75
2021/08/21 09:16:26;;;;;;;7.35;5.28;;;;;;;25.19;47.29;101255.47;5030443;28;20131;-76
2021/08/21 09:19:04;;;;;;;8.52;4.72;;;;;;;25.33;47.88;101258.50;5006874;28;20037;-76
2021/08/21 09:21:33;;;;;;;8.50;5.43;;;;;;;24.77;48.35;101258.34;5033925;28;20044;-75
2021/08/21 09:24:00;;;;;;;8.30;4.97;;;;;;;24.03;50.20;101264.53;5047589;28;20086;-77
2021/08/21 09:26:30;;;;;;;21.90;6.35;;;;;;;24.59;49.70;101253.09;5028311;28;20075;-77
2021/08/21 09:28:59;;;;;;;15.75;5.40;;;;;;;25.06;49.18;101262.38;4995268;28;20159;-75
2021/08/21 09:31:32;;;;;;;10.88;5.50;;;;;;;25.00;48.84;101253.97;5030222;28;20059;-77
2021/08/21 09:34:06;;;;;;;9.63;4.57;;;;;;;24.98;48.84;101250.56;5028952;28;20068;-75
2021/08/21 09:36:39;;;;;;;11.73;5.13;;;;;;;24.80;50.19;101259.84;5034818;28;20051;-76
2021/08/21 09:39:09;;;;;;;9.73;5.47;;;;;;;24.31;50.54;101257.03;5033619;28;20053;-74
2021/08/21 09:41:57;;;;;;;19.33;5.78;;;;;;;24.50;50.29;101256.81;5007018;28;20394;-75
2021/08/21 09:44:27;;;;;;;43.38;9.13;;;;;;;24.84;49.56;101255.81;5028341;28;20091;-74
2021/08/21 09:47:20;;;;;;;12.13;5.10;;;;;;;23.54;52.47;101253.50;5029817;28;20487;-75
2021/08/21 09:49:48;;;;;;;10.30;5.95;;;;;;;23.04;53.95;101254.19;5029202;28;20064;-75
2021/08/21 09:52:16;;;;;;;8.15;5.10;;;;;;;23.37;53.75;101253.44;5053490;28;20234;-75
2021/08/21 09:54:45;;;;;;;9.38;4.70;;;;;;;23.57;54.06;101248.66;5034487;28;20107;-75
2021/08/21 09:57:19;;;;;;;15.85;7.00;;;;;;;22.82;55.48;101253.66;5008317;28;20060;-74
2021/08/21 09:59:51;;;;;;;13.52;6.32;;;;;;;22.30;57.70;101263.38;5051881;28;20064;-75
2021/08/21 10:02:19;;;;;;;100.03;14.70;;;;;;;22.74;56.66;101257.13;5027433;28;20060;-75
2021/08/21 10:04:46;;;;;;;11.43;5.93;;;;;;;22.99;56.14;101249.28;5019317;28;20586;-74
2021/08/21 10:07:17;;;;;;;8.85;5.57;;;;;;;23.67;54.41;101249.41;5033464;28;20068;-76
2021/08/21 10:09:45;;;;;;;7.25;4.60;;;;;;;23.95;53.30;101251.88;5033641;28;20114;-76
2021/08/21 10:12:12;;;;;;;46.08;9.50;;;;;;;24.49;51.16;101252.41;5023759;28;20049;-75
2021/08/21 10:14:41;;;;;;;22.75;7.20;;;;;;;23.13;54.09;101248.72;4997460;28;20133;-75
2021/08/21 10:17:09;;;;;;;10.18;5.35;;;;;;;23.44;52.64;101254.47;5024107;28;20120;-78
2021/08/21 10:19:38;;;;;;;10.07;4.72;;;;;;;24.56;49.76;101255.28;5029272;28;20218;-75
2021/08/21 10:22:05;;;;;;;6.57;4.28;;;;;;;24.89;48.89;101253.44;5034959;28;20051;-76
2021/08/21 10:24:41;;;;;;;6.85;4.50;;;;;;;25.20;47.95;101249.06;5019994;28;20253;-75
2021/08/21 10:27:13;;;;;;;14.68;4.50;;;;;;;24.56;49.84;101249.91;5013036;28;20064;-75
2021/08/21 10:30:03;;;;;;;8.35;5.03;;;;;;;24.19;50.85;101254.69;5047593;28;20044;-75
2021/08/21 10:32:40;;;;;;;5.55;4.43;;;;;;;24.26;51.21;101252.16;5021207;28;20174;-76
2021/08/21 10:35:08;;;;;;;5.72;3.80;;;;;;;24.17;51.88;101247.75;5024823;28;20063;-76
2021/08/21 10:37:43;;;;;;;7.35;4.25;;;;;;;23.60;51.96;101248.34;5043853;28;20076;-74
2021/08/21 10:40:25;;;;;;;8.93;4.35;;;;;;;23.41;52.47;101262.00;5038802;28;20048;-74
2021/08/21 10:42:54;;;;;;;7.63;4.72;;;;;;;23.58;52.74;101255.72;5047898;28;20094;-74
2021/08/21 10:45:39;;;;;;;7.88;3.90;;;;;;;23.97;52.07;101252.59;5032434;28;20036;-75
2021/08/21 10:48:09;;;;;;;4.30;3.33;;;;;;;24.22;51.00;101259.72;5031495;28;20132;-75
2021/08/21 10:50:44;;;;;;;7.88;4.40;;;;;;;24.23;51.27;101249.81;5034679;28;20072;-74
2021/08/21 10:53:30;;;;;;;9.65;3.75;;;;;;;24.17;51.17;101250.44;5046395;28;20430;-74
2021/08/21 10:56:03;;;;;;;5.00;4.15;;;;;;;24.05;50.80;101254.47;5017171;28;20500;-75
2021/08/21 10:58:31;;;;;;;7.93;4.38;;;;;;;23.79;51.64;101250.00;5045259;28;20037;-75
2021/08/21 11:01:07;;;;;;;5.47;4.38;;;;;;;23.60;52.18;101260.97;5039235;28;20048;-78
2021/08/21 11:03:35;;;;;;;6.25;4.22;;;;;;;23.51;52.51;101246.63;5018723;28;20102;-76
2021/08/21 11:06:07;;;;;;;5.32;3.97;;;;;;;23.86;52.69;101242.09;5024731;28;20132;-75
2021/08/21 11:08:40;;;;;;;5.72;3.65;;;;;;;24.15;52.19;101244.41;5045814;28;20480;-75
2021/08/21 11:11:07;;;;;;;10.18;3.90;;;;;;;23.88;50.96;101245.50;5032285;28;20139;-75
2021/08/21 11:16:45;;;;;;;6.55;3.60;;;;;;;23.82;50.65;101241.59;5052082;28;20037;-74
2021/08/21 11:19:16;;;;;;;7.05;3.78;;;;;;;23.60;51.30;101245.69;5042409;28;20320;-75
2021/08/21 11:21:43;;;;;;;4.18;3.15;;;;;;;24.00;50.88;101244.16;5016120;28;20167;-76
2021/08/21 11:24:27;;;;;;;5.90;3.60;;;;;;;24.42;49.69;101237.94;5036151;28;20397;-74
2021/08/21 11:27:26;;;;;;;9.02;3.35;;;;;;;24.07;49.69;101237.16;5053988;28;20037;-75